createdAt,value
2023-02-27T00:00:47.188Z,71.77
2023-02-27T00:01:47.177Z,71.87
2023-02-27T00:02:47.179Z,71.87
2023-02-27T00:03:47.167Z,71.77
2023-02-27T00:04:47.198Z,71.87
2023-02-27T00:05:47.132Z,72.19
2023-02-27T00:06:47.124Z,71.97
2023-02-27T00:07:47.101Z,71.87
2023-02-27T00:08:47.162Z,71.77
2023-02-27T00:09:47.080Z,71.73
2023-02-27T00:10:47.105Z,71.42
2023-02-27T00:11:47.052Z,70.97
2023-02-27T00:12:47.045Z,70.55
2023-02-27T00:13:47.040Z,70.45
2023-02-27T00:14:47.044Z,70.45
2023-02-27T00:15:47.070Z,70.79
2023-02-27T00:16:47.134Z,71.00
2023-02-27T00:17:47.004Z,70.90
2023-02-27T00:18:46.988Z,71.14
2023-02-27T00:19:47.002Z,71.56
2023-02-27T00:20:46.975Z,71.31
2023-02-27T00:21:46.956Z,71.21
2023-02-27T00:22:47.016Z,71.42
2023-02-27T00:23:46.996Z,71.31
2023-02-27T00:24:46.935Z,71.34
2023-02-27T00:25:46.915Z,71.87
2023-02-27T00:26:46.914Z,72.08
2023-02-27T00:27:46.922Z,72.19
2023-02-27T00:28:46.902Z,72.08
2023-02-27T00:29:46.858Z,71.73
2023-02-27T00:30:46.898Z,71.31
2023-02-27T00:31:47.022Z,71.62
2023-02-27T00:32:46.837Z,71.52
2023-02-27T00:33:46.861Z,71.45
2023-02-27T00:34:46.803Z,72.08
2023-02-27T00:35:46.797Z,72.64
2023-02-27T00:36:46.788Z,73.05
2023-02-27T00:37:46.781Z,72.71
2023-02-27T00:38:46.783Z,72.39
2023-02-27T00:39:46.788Z,72.29
2023-02-27T00:40:46.729Z,72.19
2023-02-27T00:41:46.730Z,71.87
2023-02-27T00:42:46.779Z,71.73
2023-02-27T00:43:46.740Z,71.77
2023-02-27T00:44:46.758Z,71.87
2023-02-27T00:45:46.714Z,71.97
2023-02-27T00:46:46.772Z,72.53
2023-02-27T00:47:46.673Z,73.05
2023-02-27T00:48:46.650Z,73.16
2023-02-27T00:49:46.667Z,72.81
2023-02-27T00:50:46.648Z,72.50
2023-02-27T00:51:46.668Z,72.50
2023-02-27T00:52:46.611Z,72.71
2023-02-27T00:53:46.598Z,72.74
2023-02-27T00:54:46.593Z,72.71
2023-02-27T00:55:46.574Z,72.71
2023-02-27T00:56:46.590Z,72.39
2023-02-27T00:57:46.558Z,71.77
2023-02-27T00:58:46.548Z,72.19
2023-02-27T00:59:46.541Z,72.29
2023-02-27T01:00:46.568Z,72.50
2023-02-27T01:01:46.517Z,72.39
2023-02-27T01:02:46.594Z,71.87
2023-02-27T01:03:46.503Z,72.11
2023-02-27T01:04:46.521Z,72.60
2023-02-27T01:05:46.476Z,72.50
2023-02-27T01:06:46.465Z,72.08
2023-02-27T01:07:46.496Z,72.74
2023-02-27T01:08:46.442Z,72.60
2023-02-27T01:09:46.540Z,72.39
2023-02-27T01:10:46.404Z,72.25
2023-02-27T01:11:46.413Z,71.73
2023-02-27T01:12:46.394Z,71.73
2023-02-27T01:13:46.411Z,71.42
2023-02-27T01:14:46.376Z,71.45
2023-02-27T01:15:46.360Z,72.01
2023-02-27T01:16:46.353Z,72.60
2023-02-27T01:17:46.343Z,72.60
2023-02-27T01:18:46.405Z,72.39
2023-02-27T01:19:46.332Z,72.29
2023-02-27T01:20:46.304Z,72.19
2023-02-27T01:21:46.326Z,71.97
2023-02-27T01:22:46.279Z,71.87
2023-02-27T01:23:46.289Z,72.53
2023-02-27T01:24:46.317Z,73.37
2023-02-27T01:25:46.265Z,73.47
2023-02-27T01:26:46.249Z,73.05
2023-02-27T01:27:46.229Z,72.95
2023-02-27T01:28:46.222Z,73.16
2023-02-27T01:29:46.261Z,73.26
2023-02-27T01:30:46.244Z,73.93
2023-02-27T01:31:46.300Z,74.03
2023-02-27T01:32:46.260Z,74.24
2023-02-27T01:33:46.172Z,74.03
2023-02-27T01:34:46.161Z,74.13
2023-02-27T01:35:46.182Z,74.34
2023-02-27T01:36:46.144Z,74.55
2023-02-27T01:37:46.119Z,74.55
2023-02-27T01:38:46.111Z,74.31
2023-02-27T01:39:46.110Z,74.10
2023-02-27T01:40:46.109Z,74.13
2023-02-27T01:41:46.122Z,74.13
2023-02-27T01:42:46.071Z,74.45
2023-02-27T01:43:46.067Z,75.01
2023-02-27T01:44:46.038Z,75.08
2023-02-27T01:45:46.040Z,74.52
2023-02-27T01:46:46.052Z,73.86
2023-02-27T01:47:46.060Z,73.23
2023-02-27T01:48:45.996Z,73.16
2023-02-27T01:49:45.998Z,73.82
2023-02-27T01:50:45.977Z,74.66
2023-02-27T01:51:45.976Z,74.62
2023-02-27T01:52:45.951Z,73.96
2023-02-27T01:53:46.019Z,73.26
2023-02-27T01:54:45.935Z,74.03
2023-02-27T01:55:45.930Z,74.66
2023-02-27T01:56:45.908Z,74.76
2023-02-27T01:57:45.887Z,74.66
2023-02-27T01:58:45.891Z,74.31
2023-02-27T01:59:45.909Z,73.68
2023-02-27T02:00:45.868Z,73.68
2023-02-27T02:01:45.860Z,73.93
2023-02-27T02:02:45.839Z,74.21
2023-02-27T02:03:45.819Z,73.79
2023-02-27T02:04:45.842Z,73.30
2023-02-27T02:05:45.807Z,74.03
2023-02-27T02:06:45.812Z,74.55
2023-02-27T02:07:45.803Z,74.76
2023-02-27T02:08:45.776Z,74.87
2023-02-27T02:09:45.765Z,75.18
2023-02-27T02:10:45.770Z,74.84
2023-02-27T02:11:45.737Z,74.07
2023-02-27T02:12:45.730Z,73.23
2023-02-27T02:13:45.729Z,72.81
2023-02-27T02:14:45.707Z,72.85
2023-02-27T02:15:45.721Z,73.37
2023-02-27T02:16:45.728Z,73.61
2023-02-27T02:17:45.759Z,74.45
2023-02-27T02:18:45.667Z,74.55
2023-02-27T02:19:45.666Z,74.87
2023-02-27T02:20:45.635Z,74.66
2023-02-27T02:21:45.720Z,74.97
2023-02-27T02:22:45.632Z,74.97
2023-02-27T02:23:45.626Z,74.97
2023-02-27T02:24:45.607Z,74.87
2023-02-27T02:25:45.582Z,74.76
2023-02-27T02:26:45.598Z,74.66
2023-02-27T02:27:45.590Z,74.76
2023-02-27T02:28:45.552Z,75.08
2023-02-27T02:29:45.549Z,75.32
2023-02-27T02:30:45.581Z,75.32
2023-02-27T02:31:45.636Z,75.49
2023-02-27T02:32:45.570Z,75.18
2023-02-27T02:33:45.552Z,74.97
2023-02-27T02:34:45.534Z,75.32
2023-02-27T02:35:45.531Z,75.63
2023-02-27T02:36:45.487Z,75.49
2023-02-27T02:37:45.447Z,74.87
2023-02-27T02:38:45.471Z,74.34
2023-02-27T02:39:45.461Z,74.62
2023-02-27T02:40:45.425Z,74.10
2023-02-27T02:41:45.414Z,74.34
2023-02-27T02:42:45.404Z,74.66
2023-02-27T02:43:45.388Z,74.87
2023-02-27T02:44:45.409Z,75.21
2023-02-27T02:45:45.384Z,75.32
2023-02-27T02:46:45.348Z,75.53
2023-02-27T02:47:45.349Z,75.84
2023-02-27T02:48:45.340Z,76.16
2023-02-27T02:49:45.331Z,75.95
2023-02-27T02:50:45.338Z,75.49
2023-02-27T02:51:45.289Z,74.94
2023-02-27T02:52:45.278Z,74.10
2023-02-27T02:53:45.280Z,73.93
2023-02-27T02:54:45.259Z,74.13
2023-02-27T02:55:45.268Z,74.69
2023-02-27T02:56:45.267Z,75.67
2023-02-27T02:57:45.230Z,76.06
2023-02-27T02:58:45.220Z,75.74
2023-02-27T02:59:45.211Z,75.32
2023-02-27T03:00:45.206Z,75.32
2023-02-27T03:01:45.280Z,75.39
2023-02-27T03:02:45.172Z,74.87
2023-02-27T03:03:45.152Z,74.80
2023-02-27T03:04:45.324Z,75.21
2023-02-27T03:05:45.141Z,75.78
2023-02-27T03:06:45.153Z,76.09
2023-02-27T03:07:45.153Z,75.84
2023-02-27T03:08:45.106Z,75.43
2023-02-27T03:09:45.141Z,75.67
2023-02-27T03:10:45.090Z,76.75
2023-02-27T03:11:45.073Z,77.28
2023-02-27T03:12:45.109Z,77.80
2023-02-27T03:13:45.131Z,77.66
2023-02-27T03:14:45.056Z,77.14
2023-02-27T03:15:45.074Z,77.03
2023-02-27T03:16:45.029Z,77.38
2023-02-27T03:17:45.011Z,77.45
2023-02-27T03:18:45.082Z,77.24
2023-02-27T03:19:44.990Z,77.34
2023-02-27T03:20:45.007Z,77.56
2023-02-27T03:21:44.964Z,77.14
2023-02-27T03:22:44.950Z,76.93
2023-02-27T03:23:44.945Z,77.03
2023-02-27T03:24:44.973Z,76.93
2023-02-27T03:25:44.917Z,76.82
2023-02-27T03:26:44.920Z,77.03
2023-02-27T03:27:44.892Z,77.14
2023-02-27T03:28:44.886Z,76.93
2023-02-27T03:29:44.931Z,76.93
2023-02-27T03:30:45.016Z,76.96
2023-02-27T03:31:45.038Z,77.17
2023-02-27T03:32:44.952Z,77.14
2023-02-27T03:33:44.857Z,77.03
2023-02-27T03:34:44.841Z,77.03
2023-02-27T03:35:44.898Z,76.93
2023-02-27T03:36:44.826Z,76.82
2023-02-27T03:37:44.771Z,76.72
2023-02-27T03:38:44.786Z,76.72
2023-02-27T03:39:44.778Z,76.86
2023-02-27T03:40:44.810Z,77.28
2023-02-27T03:41:44.778Z,77.38
2023-02-27T03:42:44.730Z,77.59
2023-02-27T03:43:44.774Z,77.14
2023-02-27T03:44:44.703Z,76.86
2023-02-27T03:45:44.714Z,77.24
2023-02-27T03:46:44.752Z,77.07
2023-02-27T03:47:44.799Z,77.70
2023-02-27T03:48:44.825Z,77.70
2023-02-27T03:49:44.644Z,77.34
2023-02-27T03:50:44.646Z,77.03
2023-02-27T03:51:44.653Z,77.17
2023-02-27T03:52:44.643Z,77.70
2023-02-27T03:53:44.634Z,77.70
2023-02-27T03:54:44.595Z,77.24
2023-02-27T03:55:44.571Z,77.38
2023-02-27T03:56:44.581Z,77.59
2023-02-27T03:57:44.627Z,77.80
2023-02-27T03:58:44.655Z,77.45
2023-02-27T03:59:44.586Z,76.82
2023-02-27T04:00:44.588Z,76.86
2023-02-27T04:01:44.622Z,77.28
2023-02-27T04:02:44.611Z,77.14
2023-02-27T04:03:44.621Z,76.82
2023-02-27T04:04:44.576Z,76.96
2023-02-27T04:05:44.479Z,77.38
2023-02-27T04:06:44.568Z,77.59
2023-02-27T04:07:44.455Z,77.59
2023-02-27T04:08:44.564Z,77.59
2023-02-27T04:09:44.472Z,77.38
2023-02-27T04:10:44.479Z,77.59
2023-02-27T04:11:44.404Z,77.48
2023-02-27T04:12:45.882Z,77.17
2023-02-27T04:13:44.399Z,77.07
2023-02-27T04:14:44.376Z,76.82
2023-02-27T04:15:44.425Z,76.40
2023-02-27T04:16:44.517Z,76.19
2023-02-27T04:17:44.329Z,76.61
2023-02-27T04:18:44.317Z,76.37
2023-02-27T04:19:44.327Z,75.53
2023-02-27T04:20:44.319Z,75.11
2023-02-27T04:21:44.295Z,75.11
2023-02-27T04:22:44.303Z,75.01
2023-02-27T04:23:44.280Z,74.80
2023-02-27T04:24:44.255Z,75.92
2023-02-27T04:25:44.252Z,76.51
2023-02-27T04:26:44.246Z,76.40
2023-02-27T04:27:44.300Z,76.75
2023-02-27T04:28:44.249Z,77.28
2023-02-27T04:29:44.202Z,77.48
2023-02-27T04:30:44.221Z,77.80
2023-02-27T04:31:44.449Z,77.80
2023-02-27T04:32:44.260Z,77.70
2023-02-27T04:33:44.219Z,77.70
2023-02-27T04:34:44.924Z,77.80
2023-02-27T04:35:44.173Z,77.70
2023-02-27T04:36:44.142Z,77.70
2023-02-27T04:37:44.123Z,78.05
2023-02-27T04:38:44.150Z,78.25
2023-02-27T04:39:44.132Z,78.47
2023-02-27T04:40:44.117Z,78.64
2023-02-27T04:41:44.062Z,78.11
2023-02-27T04:42:44.082Z,78.25
2023-02-27T04:43:44.057Z,78.33
2023-02-27T04:44:44.095Z,78.25
2023-02-27T04:45:44.190Z,78.33
2023-02-27T04:46:44.009Z,77.91
2023-02-27T04:47:43.996Z,77.80
2023-02-27T04:48:43.997Z,77.70
2023-02-27T04:49:43.979Z,77.70
2023-02-27T04:50:43.979Z,77.24
2023-02-27T04:51:44.104Z,77.17
2023-02-27T04:52:44.255Z,77.07
2023-02-27T04:53:43.937Z,76.93
2023-02-27T04:54:43.941Z,77.07
2023-02-27T04:55:43.936Z,76.82
2023-02-27T04:56:43.940Z,76.75
2023-02-27T04:57:43.930Z,76.96
2023-02-27T04:58:43.912Z,77.03
2023-02-27T04:59:43.879Z,76.82
2023-02-27T05:00:43.866Z,76.51
2023-02-27T05:01:43.870Z,76.19
2023-02-27T05:02:43.945Z,76.54
2023-02-27T05:03:43.840Z,76.72
2023-02-27T05:04:43.815Z,76.75
2023-02-27T05:05:43.829Z,77.07
2023-02-27T05:06:43.842Z,77.28
2023-02-27T05:07:43.790Z,76.96
2023-02-27T05:08:43.822Z,76.82
2023-02-27T05:09:43.793Z,76.61
2023-02-27T05:10:43.761Z,76.40
2023-02-27T05:11:43.756Z,76.30
2023-02-27T05:12:43.735Z,76.61
2023-02-27T05:13:43.780Z,76.61
2023-02-27T05:14:43.750Z,76.09
2023-02-27T05:15:43.735Z,76.30
2023-02-27T05:16:43.823Z,76.51
2023-02-27T05:17:43.695Z,76.54
2023-02-27T05:18:43.670Z,76.96
2023-02-27T05:19:43.700Z,76.96
2023-02-27T05:20:43.660Z,77.07
2023-02-27T05:21:43.621Z,76.93
2023-02-27T05:22:43.631Z,76.40
2023-02-27T05:23:43.657Z,76.65
2023-02-27T05:24:43.636Z,76.72
2023-02-27T05:25:43.634Z,76.75
2023-02-27T05:26:43.565Z,77.38
2023-02-27T05:27:43.561Z,77.59
2023-02-27T05:28:44.973Z,77.38
2023-02-27T05:29:43.535Z,77.59
2023-02-27T05:30:43.566Z,77.80
2023-02-27T05:31:43.667Z,77.91
2023-02-27T05:32:43.536Z,77.70
2023-02-27T05:33:43.556Z,77.80
2023-02-27T05:34:43.494Z,77.56
2023-02-27T05:35:43.505Z,77.28
2023-02-27T05:36:43.455Z,77.48
2023-02-27T05:37:43.497Z,77.34
2023-02-27T05:38:43.453Z,77.28
2023-02-27T05:39:43.420Z,77.28
2023-02-27T05:40:45.795Z,77.28
2023-02-27T05:41:43.570Z,77.70
2023-02-27T05:42:43.424Z,77.91
2023-02-27T05:43:43.382Z,78.01
2023-02-27T05:44:43.382Z,78.25
2023-02-27T05:45:43.388Z,78.47
2023-02-27T05:46:43.349Z,79.13
2023-02-27T05:47:43.321Z,79.38
2023-02-27T05:48:43.371Z,78.64
2023-02-27T05:49:43.310Z,78.43
2023-02-27T05:50:43.297Z,78.47
2023-02-27T05:51:43.304Z,78.64
2023-02-27T05:52:43.271Z,78.11
2023-02-27T05:53:43.276Z,77.91
2023-02-27T05:54:43.306Z,77.91
2023-02-27T05:55:43.264Z,77.94
2023-02-27T05:56:43.277Z,78.67
2023-02-27T05:57:43.229Z,78.78
2023-02-27T05:58:43.206Z,78.74
2023-02-27T05:59:43.201Z,78.53
2023-02-27T06:00:43.223Z,78.29
2023-02-27T06:01:45.179Z,77.76
2023-02-27T06:02:43.185Z,77.80
2023-02-27T06:03:43.260Z,78.01
2023-02-27T06:04:43.156Z,78.11
2023-02-27T06:05:43.146Z,77.76
2023-02-27T06:06:43.158Z,76.96
2023-02-27T06:07:43.103Z,77.38
2023-02-27T06:08:43.155Z,78.15
2023-02-27T06:09:43.147Z,78.15
2023-02-27T06:10:43.081Z,78.67
2023-02-27T06:11:43.069Z,78.64
2023-02-27T06:12:44.483Z,78.33
2023-02-27T06:13:43.048Z,78.53
2023-02-27T06:14:43.052Z,78.33
2023-02-27T06:15:43.086Z,78.57
2023-02-27T06:16:43.062Z,79.20
2023-02-27T06:17:43.040Z,79.20
2023-02-27T06:18:43.034Z,79.41
2023-02-27T06:19:43.020Z,79.41
2023-02-27T06:20:42.971Z,79.97
2023-02-27T06:21:42.983Z,80.18
2023-02-27T06:22:42.952Z,80.81
2023-02-27T06:23:43.040Z,81.23
2023-02-27T06:24:42.918Z,80.74
2023-02-27T06:25:42.917Z,80.15
2023-02-27T06:26:42.902Z,80.57
2023-02-27T06:27:42.893Z,80.57
2023-02-27T06:28:42.898Z,80.67
2023-02-27T06:29:42.888Z,80.35
2023-02-27T06:30:44.681Z,80.67
2023-02-27T06:31:42.870Z,80.63
2023-02-27T06:32:42.931Z,80.15
2023-02-27T06:33:43.008Z,80.35
2023-02-27T06:34:42.830Z,80.00
2023-02-27T06:35:42.890Z,79.69
2023-02-27T06:36:42.804Z,79.90
2023-02-27T06:37:42.814Z,79.58
2023-02-27T06:38:42.791Z,79.27
2023-02-27T06:39:42.758Z,79.20
2023-02-27T06:40:42.829Z,79.72
2023-02-27T06:41:42.752Z,79.93
2023-02-27T06:42:42.726Z,80.15
2023-02-27T06:43:42.712Z,80.63
2023-02-27T06:44:42.746Z,80.11
2023-02-27T06:45:42.700Z,79.79
2023-02-27T06:46:42.762Z,79.52
2023-02-27T06:47:42.700Z,80.04
2023-02-27T06:48:42.665Z,80.46
2023-02-27T06:49:42.648Z,81.09
2023-02-27T06:50:42.639Z,80.88
2023-02-27T06:51:44.917Z,80.63
2023-02-27T06:52:42.656Z,79.93
2023-02-27T06:53:42.643Z,80.88
2023-02-27T06:54:42.603Z,81.40
2023-02-27T06:55:42.575Z,81.05
2023-02-27T06:56:42.624Z,80.57
2023-02-27T06:57:42.563Z,81.20
2023-02-27T06:58:42.595Z,81.72
2023-02-27T06:59:42.532Z,82.03
2023-02-27T07:00:42.551Z,82.24
2023-02-27T07:01:42.589Z,82.35
2023-02-27T07:02:42.504Z,82.42
2023-02-27T07:03:42.545Z,81.68
2023-02-27T07:04:42.532Z,81.68
2023-02-27T07:05:42.482Z,81.75
2023-02-27T07:07:33.038Z,81.33
2023-02-27T07:07:43.585Z,81.19
2023-02-27T07:08:54.034Z,81.33
2023-02-27T07:09:43.488Z,81.43
2023-02-27T07:10:42.419Z,81.43
2023-02-27T07:11:42.406Z,81.50
2023-02-27T07:12:42.394Z,80.98
2023-02-27T07:13:42.415Z,80.73
2023-02-27T07:14:42.385Z,80.63
2023-02-27T07:15:42.487Z,80.66
2023-02-27T07:16:42.351Z,81.19
2023-02-27T07:17:42.348Z,81.04
2023-02-27T07:18:42.351Z,80.94
2023-02-27T07:19:42.326Z,80.73
2023-02-27T07:20:42.337Z,80.52
2023-02-27T07:21:42.330Z,80.17
2023-02-27T07:22:42.283Z,79.86
2023-02-27T07:23:42.273Z,80.42
2023-02-27T07:24:42.267Z,81.04
2023-02-27T07:25:42.261Z,81.15
2023-02-27T07:26:46.202Z,80.80
2023-02-27T07:27:42.227Z,80.69
2023-02-27T07:28:42.266Z,80.45
2023-02-27T07:29:42.233Z,80.03
2023-02-27T07:30:42.299Z,79.93
2023-02-27T07:31:42.193Z,79.40
2023-02-27T07:32:42.214Z,79.72
2023-02-27T07:33:42.188Z,79.96
2023-02-27T07:34:42.160Z,80.35
2023-02-27T07:35:42.174Z,79.68
2023-02-27T07:36:42.159Z,79.47
2023-02-27T07:37:42.125Z,79.68
2023-02-27T07:38:42.187Z,79.47
2023-02-27T07:39:42.136Z,79.54
2023-02-27T07:40:42.089Z,78.91
2023-02-27T07:41:42.082Z,78.91
2023-02-27T07:42:42.065Z,79.12
2023-02-27T07:43:42.079Z,78.81
2023-02-27T07:44:42.050Z,79.16
2023-02-27T07:45:42.033Z,79.58
2023-02-27T07:46:42.044Z,79.12
2023-02-27T07:47:42.032Z,78.95
2023-02-27T07:48:42.003Z,79.02
2023-02-27T07:49:42.014Z,78.39
2023-02-27T07:50:42.006Z,78.18
2023-02-27T07:51:41.970Z,78.08
2023-02-27T07:52:41.948Z,78.46
2023-02-27T07:53:41.968Z,78.14
2023-02-27T07:54:41.954Z,78.35
2023-02-27T07:55:41.980Z,78.25
2023-02-27T07:56:41.940Z,78.04
2023-02-27T07:57:41.918Z,77.94
2023-02-27T07:58:41.888Z,77.83
2023-02-27T07:59:41.862Z,78.04
2023-02-27T08:00:41.902Z,78.11
2023-02-27T08:01:41.868Z,77.90
2023-02-27T08:02:41.861Z,77.59
2023-02-27T08:03:41.821Z,77.48
2023-02-27T08:04:41.817Z,77.76
2023-02-27T08:05:41.883Z,76.96
2023-02-27T08:06:41.941Z,77.14
2023-02-27T08:07:41.775Z,76.92
2023-02-27T08:08:41.782Z,76.26
2023-02-27T08:09:41.757Z,76.26
2023-02-27T08:10:41.742Z,76.37
2023-02-27T08:11:41.747Z,75.85
2023-02-27T08:12:41.772Z,75.63
2023-02-27T08:13:59.667Z,76.06
2023-02-27T08:14:42.700Z,75.53
2023-02-27T08:15:41.676Z,75.71
2023-02-27T08:16:41.701Z,75.01
2023-02-27T08:17:41.669Z,74.49
2023-02-27T08:18:41.713Z,73.66
2023-02-27T08:19:41.673Z,73.45
2023-02-27T08:20:41.696Z,73.55
2023-02-27T08:21:41.635Z,73.76
2023-02-27T08:22:41.602Z,73.45
2023-02-27T08:23:42.704Z,73.42
2023-02-27T08:24:41.611Z,72.86
2023-02-27T08:25:41.587Z,72.24
2023-02-27T08:26:41.594Z,72.03
2023-02-27T08:27:41.557Z,71.72
2023-02-27T08:28:41.557Z,72.06
2023-02-27T08:29:41.584Z,72.24
2023-02-27T08:30:41.531Z,72.03
2023-02-27T08:31:41.571Z,71.48
2023-02-27T08:32:41.518Z,71.37
2023-02-27T08:33:41.494Z,71.13
2023-02-27T08:34:41.474Z,70.92
2023-02-27T08:35:41.513Z,70.12
2023-02-27T08:36:41.456Z,70.85
2023-02-27T08:37:41.442Z,70.72
2023-02-27T08:38:41.448Z,70.33
2023-02-27T08:39:41.409Z,70.68
2023-02-27T08:40:41.409Z,71.17
2023-02-27T08:41:41.443Z,70.54
2023-02-27T08:42:41.379Z,70.33
2023-02-27T08:43:41.369Z,70.20
2023-02-27T08:44:41.371Z,70.37
2023-02-27T08:45:41.373Z,69.51
2023-02-27T08:46:41.352Z,68.68
2023-02-27T08:47:41.332Z,68.84
2023-02-27T08:48:41.316Z,69.37
2023-02-27T08:49:41.338Z,70.09
2023-02-27T08:50:41.281Z,70.13
2023-02-27T08:51:41.277Z,69.61
2023-02-27T08:52:41.351Z,68.88
2023-02-27T08:53:41.269Z,69.23
2023-02-27T08:54:41.240Z,68.99
2023-02-27T08:55:41.230Z,68.68
2023-02-27T08:56:41.239Z,68.54
2023-02-27T08:57:41.229Z,67.99
2023-02-27T08:58:41.256Z,67.86
2023-02-27T08:59:41.198Z,66.25
2023-02-27T09:00:41.215Z,65.91
2023-02-27T09:01:41.198Z,66.22
2023-02-27T09:02:41.213Z,65.32
2023-02-27T09:03:41.157Z,66.54
2023-02-27T09:04:41.151Z,64.98
2023-02-27T09:05:41.147Z,65.01
2023-02-27T09:06:41.101Z,64.52
2023-02-27T09:07:41.141Z,65.63
2023-02-27T09:08:41.129Z,64.11
2023-02-27T09:09:41.073Z,64.07
2023-02-27T09:10:41.098Z,64.36
2023-02-27T09:11:41.057Z,64.85
2023-02-27T09:12:41.036Z,63.32
2023-02-27T09:13:41.035Z,63.56
2023-02-27T09:14:41.018Z,63.73
2023-02-27T09:15:41.025Z,64.12
2023-02-27T09:16:41.093Z,63.40
2023-02-27T09:17:40.983Z,63.09
2023-02-27T09:18:40.973Z,62.67
2023-02-27T09:19:40.972Z,63.09
2023-02-27T09:20:40.997Z,63.11
2023-02-27T09:21:40.950Z,63.60
2023-02-27T09:22:40.965Z,63.47
2023-02-27T09:23:40.942Z,62.98
2023-02-27T09:24:40.962Z,62.88
2023-02-27T09:25:40.904Z,63.53
2023-02-27T09:26:45.965Z,63.94
2023-02-27T09:27:41.905Z,64.87
2023-02-27T09:28:40.966Z,64.70
2023-02-27T09:29:40.866Z,64.46
2023-02-27T09:30:40.847Z,64.54
2023-02-27T09:31:40.891Z,65.13
2023-02-27T09:32:40.887Z,64.20
2023-02-27T09:33:40.880Z,64.30
2023-02-27T09:34:40.806Z,64.37
2023-02-27T09:35:40.807Z,63.23
2023-02-27T09:36:40.789Z,63.34
2023-02-27T09:37:40.781Z,63.54
2023-02-27T09:38:41.477Z,64.17
2023-02-27T09:39:40.851Z,63.72
2023-02-27T09:40:40.772Z,63.41
2023-02-27T09:41:40.742Z,62.48
2023-02-27T09:42:40.727Z,62.55
2023-02-27T09:43:40.847Z,62.27
2023-02-27T09:44:46.687Z,62.55
2023-02-27T09:45:41.700Z,62.14
2023-02-27T09:46:40.695Z,61.86
2023-02-27T09:47:40.689Z,62.55
2023-02-27T09:48:40.655Z,61.80
2023-02-27T09:49:40.684Z,61.59
2023-02-27T09:50:40.647Z,61.59
2023-02-27T09:51:40.640Z,61.36
2023-02-27T09:52:40.596Z,60.94
2023-02-27T09:53:40.607Z,60.87
2023-02-27T09:54:41.153Z,60.32
2023-02-27T09:55:40.594Z,60.06
2023-02-27T09:56:40.604Z,60.82
2023-02-27T09:57:40.558Z,61.21
2023-02-27T09:58:40.536Z,61.00
2023-02-27T09:59:40.523Z,60.97
2023-02-27T10:00:40.507Z,60.38
2023-02-27T10:01:40.597Z,60.53
2023-02-27T10:02:40.526Z,60.04
2023-02-27T10:03:40.522Z,59.16
2023-02-27T10:04:40.469Z,60.74
2023-02-27T10:05:40.459Z,60.33
2023-02-27T10:06:40.451Z,60.82
2023-02-27T10:07:40.496Z,60.35
2023-02-27T10:08:40.442Z,59.94
2023-02-27T10:09:40.436Z,58.87
2023-02-27T10:10:40.468Z,58.44
2023-02-27T10:11:40.382Z,57.58
2023-02-27T10:12:40.379Z,57.22
2023-02-27T10:13:40.406Z,58.25
2023-02-27T10:14:40.373Z,58.44
2023-02-27T10:15:40.339Z,58.09
2023-02-27T10:16:40.394Z,57.45
2023-02-27T10:17:40.323Z,56.26
2023-02-27T10:18:40.353Z,57.27
2023-02-27T10:19:40.294Z,56.65
2023-02-27T10:20:40.299Z,57.37
2023-02-27T10:21:40.285Z,57.79
2023-02-27T10:22:40.267Z,56.10
2023-02-27T10:23:40.248Z,55.82
2023-02-27T10:24:40.252Z,56.10
2023-02-27T10:25:40.247Z,55.85
2023-02-27T10:26:40.239Z,55.51
2023-02-27T10:27:40.205Z,55.20
2023-02-27T10:28:40.190Z,54.94
2023-02-27T10:29:40.272Z,55.69
2023-02-27T10:30:40.246Z,56.13
2023-02-27T10:31:40.180Z,56.96
2023-02-27T10:32:40.142Z,57.17
2023-02-27T10:33:40.151Z,56.77
2023-02-27T10:34:40.116Z,57.84
2023-02-27T10:35:40.156Z,57.97
2023-02-27T10:36:40.155Z,58.46
2023-02-27T10:37:40.091Z,58.07
2023-02-27T10:38:40.083Z,59.19
2023-02-27T10:39:40.070Z,58.90
2023-02-27T10:40:40.049Z,59.45
2023-02-27T10:41:40.185Z,59.86
2023-02-27T10:42:41.664Z,58.90
2023-02-27T10:43:40.046Z,58.18
2023-02-27T10:44:40.035Z,59.00
2023-02-27T10:45:39.986Z,58.90
2023-02-27T10:46:40.150Z,58.98
2023-02-27T10:47:39.968Z,58.62
2023-02-27T10:48:39.970Z,58.48
2023-02-27T10:49:39.991Z,58.59
2023-02-27T10:50:39.967Z,57.89
2023-02-27T10:51:39.926Z,59.34
2023-02-27T10:52:40.305Z,58.20
2023-02-27T10:53:39.911Z,58.98
2023-02-27T10:54:39.896Z,57.79
2023-02-27T10:55:39.900Z,56.65
2023-02-27T10:56:39.863Z,55.87
2023-02-27T10:57:39.900Z,56.31
2023-02-27T10:58:39.914Z,56.52
2023-02-27T10:59:39.822Z,57.17
2023-02-27T11:00:39.820Z,56.75
2023-02-27T11:01:39.838Z,56.75
2023-02-27T11:02:39.779Z,57.27
2023-02-27T11:03:41.320Z,55.90
2023-02-27T11:04:39.876Z,55.51
2023-02-27T11:05:39.779Z,56.13
2023-02-27T11:06:39.748Z,56.37
2023-02-27T11:07:39.785Z,56.44
2023-02-27T11:08:39.726Z,57.12
2023-02-27T11:09:39.715Z,57.60
2023-02-27T11:10:39.740Z,57.63
2023-02-27T11:11:39.699Z,57.19
2023-02-27T11:12:39.707Z,57.19
2023-02-27T11:13:39.657Z,56.54
2023-02-27T11:14:39.683Z,57.24
2023-02-27T11:15:39.667Z,57.27
2023-02-27T11:16:39.661Z,56.41
2023-02-27T11:17:39.603Z,54.48
2023-02-27T11:18:39.629Z,55.56
2023-02-27T11:19:39.594Z,53.91
2023-02-27T11:20:39.634Z,52.34
2023-02-27T11:21:39.565Z,53.91
2023-02-27T11:22:39.576Z,54.90
2023-02-27T11:23:39.541Z,54.27
2023-02-27T11:24:39.528Z,53.27
2023-02-27T11:25:39.535Z,53.29
2023-02-27T11:26:39.591Z,53.19
2023-02-27T11:27:39.517Z,52.88
2023-02-27T11:28:39.493Z,52.78
2023-02-27T11:29:39.468Z,52.78
2023-02-27T11:30:39.478Z,51.64
2023-02-27T11:31:39.469Z,51.82
2023-02-27T11:32:39.480Z,52.86
2023-02-27T11:33:39.443Z,51.92
2023-02-27T11:34:39.434Z,51.23
2023-02-27T11:35:39.435Z,52.36
2023-02-27T11:36:39.403Z,52.28
2023-02-27T11:37:39.391Z,52.28
2023-02-27T11:38:39.394Z,52.70
2023-02-27T11:39:39.365Z,51.62
2023-02-27T11:40:39.363Z,50.99
2023-02-27T11:41:39.340Z,52.00
2023-02-27T11:42:39.339Z,50.25
2023-02-27T11:43:39.338Z,49.94
2023-02-27T11:44:50.216Z,51.39
2023-02-27T11:46:04.844Z,51.59
2023-02-27T11:46:47.812Z,52.13
2023-02-27T11:47:40.284Z,52.65
2023-02-27T11:48:39.296Z,52.23
2023-02-27T11:49:39.262Z,51.66
2023-02-27T11:50:39.249Z,51.87
2023-02-27T11:51:39.245Z,50.34
2023-02-27T11:52:39.227Z,50.55
2023-02-27T11:53:39.234Z,51.61
2023-02-27T11:54:39.203Z,50.57
2023-02-27T11:55:39.252Z,51.25
2023-02-27T11:56:39.206Z,50.01
2023-02-27T11:57:39.186Z,50.42
2023-02-27T11:58:39.145Z,49.78
2023-02-27T11:59:39.180Z,49.86
2023-02-27T12:00:39.138Z,49.86
2023-02-27T12:01:39.125Z,49.34
2023-02-27T12:02:39.425Z,49.53
2023-02-27T12:03:39.212Z,49.91
2023-02-27T12:04:39.076Z,48.76
2023-02-27T12:05:39.115Z,48.47
2023-02-27T12:06:39.084Z,48.97
2023-02-27T12:07:39.039Z,48.97
2023-02-27T12:08:39.065Z,48.88
2023-02-27T12:09:39.019Z,49.25
2023-02-27T12:10:39.015Z,48.12
2023-02-27T12:11:38.996Z,48.61
2023-02-27T12:12:39.030Z,47.79
2023-02-27T12:13:38.986Z,48.45
2023-02-27T12:14:38.979Z,48.27
2023-02-27T12:15:38.959Z,48.99
2023-02-27T12:16:39.010Z,48.63
2023-02-27T12:17:38.977Z,47.38
2023-02-27T12:18:38.971Z,47.25
2023-02-27T12:19:38.916Z,46.94
2023-02-27T12:20:38.892Z,46.66
2023-02-27T12:21:38.877Z,47.79
2023-02-27T12:22:38.911Z,47.42
2023-02-27T12:23:38.859Z,48.66
2023-02-27T12:24:38.908Z,48.39
2023-02-27T12:25:38.847Z,47.69
2023-02-27T12:26:38.824Z,49.24
2023-02-27T12:27:38.807Z,49.63
2023-02-27T12:28:38.806Z,48.91
2023-02-27T12:29:39.036Z,48.88
2023-02-27T12:30:38.800Z,48.27
2023-02-27T12:31:38.849Z,46.82
2023-02-27T12:32:38.826Z,47.34
2023-02-27T12:33:38.734Z,48.29
2023-02-27T12:34:38.747Z,47.77
2023-02-27T12:35:38.768Z,47.98
2023-02-27T12:36:38.708Z,47.34
2023-02-27T12:37:38.724Z,47.03
2023-02-27T12:38:39.415Z,48.14
2023-02-27T12:39:38.674Z,47.55
2023-02-27T12:40:38.667Z,48.29
2023-02-27T12:41:38.696Z,48.06
2023-02-27T12:42:38.671Z,46.20
2023-02-27T12:43:38.623Z,47.21
2023-02-27T12:44:38.614Z,47.21
2023-02-27T12:45:38.617Z,46.88
2023-02-27T12:46:38.614Z,47.91
2023-02-27T12:47:38.604Z,48.84
2023-02-27T12:48:38.595Z,47.71
2023-02-27T12:49:38.572Z,47.34
2023-02-27T12:50:38.554Z,47.21
2023-02-27T12:51:38.553Z,46.00
2023-02-27T12:52:38.557Z,46.43